sensor_id;sensor_type;location;lat;lon;timestamp;P1;durP1;ratioP1;P2;durP2;ratioP2
66523;SDS011;53350;52.210;5.160;2023-12-14T00:01:40;13.27;;;7.55;;
66523;SDS011;53350;52.210;5.160;2023-12-14T00:04:07;10.40;;;7.20;;
66523;SDS011;53350;52.210;5.160;2023-12-14T00:06:34;12.40;;;7.50;;
66523;SDS011;53350;52.210;5.160;2023-12-14T00:09:00;10.05;;;6.45;;
66523;SDS011;53350;52.210;5.160;2023-12-14T00:11:27;9.98;;;6.13;;
66523;SDS011;53350;52.210;5.160;2023-12-14T00:13:53;11.52;;;6.95;;
66523;SDS011;53350;52.210;5.160;2023-12-14T00:16:19;12.48;;;7.70;;
66523;SDS011;53350;52.210;5.160;2023-12-14T00:18:46;11.20;;;7.03;;
66523;SDS011;53350;52.210;5.160;2023-12-14T00:21:14;11.23;;;7.10;;
66523;SDS011;53350;52.210;5.160;2023-12-14T00:23:40;11.50;;;8.05;;
66523;SDS011;53350;52.210;5.160;2023-12-14T00:26:07;12.32;;;8.18;;
66523;SDS011;53350;52.210;5.160;2023-12-14T00:28:33;11.60;;;7.95;;
66523;SDS011;53350;52.210;5.160;2023-12-14T00:31:00;12.40;;;8.45;;
66523;SDS011;53350;52.210;5.160;2023-12-14T00:33:26;13.68;;;8.43;;
66523;SDS011;53350;52.210;5.160;2023-12-14T00:35:53;11.88;;;8.00;;
66523;SDS011;53350;52.210;5.160;2023-12-14T00:38:20;12.65;;;8.13;;
66523;SDS011;53350;52.210;5.160;2023-12-14T00:40:47;13.40;;;8.10;;
66523;SDS011;53350;52.210;5.160;2023-12-14T00:43:13;13.38;;;6.93;;
66523;SDS011;53350;52.210;5.160;2023-12-14T00:45:40;11.30;;;7.50;;
66523;SDS011;53350;52.210;5.160;2023-12-14T00:48:06;12.85;;;7.72;;
66523;SDS011;53350;52.210;5.160;2023-12-14T00:50:33;13.25;;;7.88;;
66523;SDS011;53350;52.210;5.160;2023-12-14T00:52:59;12.55;;;8.07;;
66523;SDS011;53350;52.210;5.160;2023-12-14T00:55:27;11.75;;;7.63;;
66523;SDS011;53350;52.210;5.160;2023-12-14T00:57:53;13.10;;;8.77;;
66523;SDS011;53350;52.210;5.160;2023-12-14T01:00:20;13.40;;;8.02;;
66523;SDS011;53350;52.210;5.160;2023-12-14T01:02:46;11.40;;;7.90;;
66523;SDS011;53350;52.210;5.160;2023-12-14T01:05:13;12.27;;;7.35;;
66523;SDS011;53350;52.210;5.160;2023-12-14T01:07:39;10.98;;;6.57;;
66523;SDS011;53350;52.210;5.160;2023-12-14T01:10:06;16.80;;;9.00;;
66523;SDS011;53350;52.210;5.160;2023-12-14T01:12:35;11.68;;;7.80;;
66523;SDS011;53350;52.210;5.160;2023-12-14T01:15:01;13.90;;;7.07;;
66523;SDS011;53350;52.210;5.160;2023-12-14T01:17:28;10.43;;;7.18;;
66523;SDS011;53350;52.210;5.160;2023-12-14T01:19:54;12.45;;;6.75;;
66523;SDS011;53350;52.210;5.160;2023-12-14T01:22:20;12.68;;;8.15;;
66523;SDS011;53350;52.210;5.160;2023-12-14T01:24:47;11.55;;;7.90;;
66523;SDS011;53350;52.210;5.160;2023-12-14T01:27:13;12.27;;;8.10;;
66523;SDS011;53350;52.210;5.160;2023-12-14T01:29:41;11.90;;;8.27;;
66523;SDS011;53350;52.210;5.160;2023-12-14T01:32:07;12.07;;;8.40;;
66523;SDS011;53350;52.210;5.160;2023-12-14T01:34:34;11.13;;;7.72;;
66523;SDS011;53350;52.210;5.160;2023-12-14T01:37:00;13.60;;;7.20;;
66523;SDS011;53350;52.210;5.160;2023-12-14T01:39:27;15.25;;;8.30;;
66523;SDS011;53350;52.210;5.160;2023-12-14T01:41:53;15.40;;;8.50;;
66523;SDS011;53350;52.210;5.160;2023-12-14T01:44:19;15.18;;;8.75;;
66523;SDS011;53350;52.210;5.160;2023-12-14T01:46:47;14.30;;;8.63;;
66523;SDS011;53350;52.210;5.160;2023-12-14T01:49:13;12.98;;;8.52;;
66523;SDS011;53350;52.210;5.160;2023-12-14T01:51:40;13.40;;;8.15;;
66523;SDS011;53350;52.210;5.160;2023-12-14T01:54:06;14.23;;;8.27;;
66523;SDS011;53350;52.210;5.160;2023-12-14T01:56:33;13.38;;;8.65;;
66523;SDS011;53350;52.210;5.160;2023-12-14T01:58:59;14.07;;;9.25;;
66523;SDS011;53350;52.210;5.160;2023-12-14T02:01:27;16.80;;;9.52;;
66523;SDS011;53350;52.210;5.160;2023-12-14T02:03:58;15.13;;;9.18;;
66523;SDS011;53350;52.210;5.160;2023-12-14T02:06:25;14.85;;;9.18;;
66523;SDS011;53350;52.210;5.160;2023-12-14T02:08:52;16.02;;;8.95;;
66523;SDS011;53350;52.210;5.160;2023-12-14T02:11:18;17.52;;;10.10;;
66523;SDS011;53350;52.210;5.160;2023-12-14T02:13:45;15.32;;;8.98;;
66523;SDS011;53350;52.210;5.160;2023-12-14T02:16:11;16.23;;;9.45;;
66523;SDS011;53350;52.210;5.160;2023-12-14T02:18:38;11.57;;;6.75;;
66523;SDS011;53350;52.210;5.160;2023-12-14T02:21:06;13.73;;;8.40;;
66523;SDS011;53350;52.210;5.160;2023-12-14T02:23:33;14.23;;;8.13;;
66523;SDS011;53350;52.210;5.160;2023-12-14T02:26:01;14.55;;;7.85;;
66523;SDS011;53350;52.210;5.160;2023-12-14T02:28:27;17.45;;;8.45;;
66523;SDS011;53350;52.210;5.160;2023-12-14T02:30:54;15.23;;;7.80;;
66523;SDS011;53350;52.210;5.160;2023-12-14T02:33:20;16.25;;;8.52;;
66523;SDS011;53350;52.210;5.160;2023-12-14T02:35:46;16.23;;;8.27;;
66523;SDS011;53350;52.210;5.160;2023-12-14T02:38:13;20.23;;;9.65;;
66523;SDS011;53350;52.210;5.160;2023-12-14T02:40:41;13.27;;;8.75;;
66523;SDS011;53350;52.210;5.160;2023-12-14T02:43:07;15.52;;;8.88;;
66523;SDS011;53350;52.210;5.160;2023-12-14T02:45:33;12.35;;;6.80;;
66523;SDS011;53350;52.210;5.160;2023-12-14T02:48:00;14.85;;;8.68;;
66523;SDS011;53350;52.210;5.160;2023-12-14T02:50:26;17.17;;;9.15;;
66523;SDS011;53350;52.210;5.160;2023-12-14T02:52:53;19.45;;;7.93;;
66523;SDS011;53350;52.210;5.160;2023-12-14T02:55:19;13.80;;;7.60;;
66523;SDS011;53350;52.210;5.160;2023-12-14T02:57:47;18.77;;;8.27;;
66523;SDS011;53350;52.210;5.160;2023-12-14T03:00:13;16.55;;;8.65;;
66523;SDS011;53350;52.210;5.160;2023-12-14T03:02:40;15.15;;;8.05;;
66523;SDS011;53350;52.210;5.160;2023-12-14T03:05:07;16.20;;;8.10;;
66523;SDS011;53350;52.210;5.160;2023-12-14T03:07:34;14.73;;;8.57;;
66523;SDS011;53350;52.210;5.160;2023-12-14T03:10:01;13.00;;;7.68;;
66523;SDS011;53350;52.210;5.160;2023-12-14T03:12:28;18.30;;;5.70;;
66523;SDS011;53350;52.210;5.160;2023-12-14T03:14:56;16.60;;;7.40;;
66523;SDS011;53350;52.210;5.160;2023-12-14T03:17:23;14.77;;;7.22;;
66523;SDS011;53350;52.210;5.160;2023-12-14T03:19:49;17.63;;;8.70;;
66523;SDS011;53350;52.210;5.160;2023-12-14T03:22:15;10.55;;;5.82;;
66523;SDS011;53350;52.210;5.160;2023-12-14T03:24:42;13.55;;;6.47;;
66523;SDS011;53350;52.210;5.160;2023-12-14T03:27:08;16.02;;;7.38;;
66523;SDS011;53350;52.210;5.160;2023-12-14T03:29:35;11.85;;;6.35;;
66523;SDS011;53350;52.210;5.160;2023-12-14T03:32:03;14.45;;;6.15;;
66523;SDS011;53350;52.210;5.160;2023-12-14T03:34:29;11.13;;;5.28;;
66523;SDS011;53350;52.210;5.160;2023-12-14T03:36:56;16.02;;;6.53;;
66523;SDS011;53350;52.210;5.160;2023-12-14T03:39:22;14.30;;;6.43;;
66523;SDS011;53350;52.210;5.160;2023-12-14T03:41:49;14.73;;;5.97;;
66523;SDS011;53350;52.210;5.160;2023-12-14T03:44:15;12.75;;;6.30;;
66523;SDS011;53350;52.210;5.160;2023-12-14T03:46:41;11.27;;;5.88;;
66523;SDS011;53350;52.210;5.160;2023-12-14T03:49:09;14.77;;;6.15;;
66523;SDS011;53350;52.210;5.160;2023-12-14T03:51:36;9.90;;;6.32;;
66523;SDS011;53350;52.210;5.160;2023-12-14T03:54:02;16.25;;;6.30;;
66523;SDS011;53350;52.210;5.160;2023-12-14T03:56:29;15.50;;;6.05;;
66523;SDS011;53350;52.210;5.160;2023-12-14T03:58:55;15.23;;;5.45;;
66523;SDS011;53350;52.210;5.160;2023-12-14T04:01:22;13.25;;;5.28;;
66523;SDS011;53350;52.210;5.160;2023-12-14T04:03:48;12.75;;;5.40;;
66523;SDS011;53350;52.210;5.160;2023-12-14T04:06:16;11.55;;;5.72;;
66523;SDS011;53350;52.210;5.160;2023-12-14T04:08:42;11.55;;;5.55;;
66523;SDS011;53350;52.210;5.160;2023-12-14T04:11:09;12.35;;;5.35;;
66523;SDS011;53350;52.210;5.160;2023-12-14T04:13:35;15.32;;;5.40;;
66523;SDS011;53350;52.210;5.160;2023-12-14T04:16:02;13.38;;;5.78;;
66523;SDS011;53350;52.210;5.160;2023-12-14T04:18:29;10.30;;;4.57;;
66523;SDS011;53350;52.210;5.160;2023-12-14T04:20:55;10.13;;;4.68;;
66523;SDS011;53350;52.210;5.160;2023-12-14T04:23:23;9.50;;;4.90;;
66523;SDS011;53350;52.210;5.160;2023-12-14T04:25:50;11.68;;;4.60;;
66523;SDS011;53350;52.210;5.160;2023-12-14T04:28:16;8.23;;;4.25;;
66523;SDS011;53350;52.210;5.160;2023-12-14T04:30:43;10.98;;;4.65;;
66523;SDS011;53350;52.210;5.160;2023-12-14T04:33:09;9.00;;;4.53;;
66523;SDS011;53350;52.210;5.160;2023-12-14T04:35:36;8.05;;;3.80;;
66523;SDS011;53350;52.210;5.160;2023-12-14T04:38:03;10.68;;;4.80;;
66523;SDS011;53350;52.210;5.160;2023-12-14T04:40:31;8.82;;;4.03;;
66523;SDS011;53350;52.210;5.160;2023-12-14T04:42:58;8.45;;;4.40;;
66523;SDS011;53350;52.210;5.160;2023-12-14T04:45:24;8.98;;;4.28;;
66523;SDS011;53350;52.210;5.160;2023-12-14T04:47:50;8.95;;;4.35;;
66523;SDS011;53350;52.210;5.160;2023-12-14T04:50:17;11.23;;;4.78;;
66523;SDS011;53350;52.210;5.160;2023-12-14T04:52:43;10.05;;;4.38;;
66523;SDS011;53350;52.210;5.160;2023-12-14T04:55:10;8.35;;;4.20;;
66523;SDS011;53350;52.210;5.160;2023-12-14T04:57:37;9.00;;;3.83;;
66523;SDS011;53350;52.210;5.160;2023-12-14T05:00:04;8.05;;;3.42;;
66523;SDS011;53350;52.210;5.160;2023-12-14T05:04:58;8.57;;;3.97;;
66523;SDS011;53350;52.210;5.160;2023-12-14T05:07:25;10.48;;;4.07;;
66523;SDS011;53350;52.210;5.160;2023-12-14T05:09:52;8.73;;;3.95;;
66523;SDS011;53350;52.210;5.160;2023-12-14T05:12:18;6.97;;;3.88;;
66523;SDS011;53350;52.210;5.160;2023-12-14T05:14:46;7.55;;;4.15;;
66523;SDS011;53350;52.210;5.160;2023-12-14T05:17:12;7.40;;;4.03;;
66523;SDS011;53350;52.210;5.160;2023-12-14T05:19:39;8.75;;;4.55;;
66523;SDS011;53350;52.210;5.160;2023-12-14T05:22:05;10.18;;;4.13;;
66523;SDS011;53350;52.210;5.160;2023-12-14T05:24:31;7.80;;;3.63;;
66523;SDS011;53350;52.210;5.160;2023-12-14T05:26:58;7.53;;;3.70;;
66523;SDS011;53350;52.210;5.160;2023-12-14T05:29:24;8.88;;;3.70;;
66523;SDS011;53350;52.210;5.160;2023-12-14T05:31:52;7.85;;;3.75;;
66523;SDS011;53350;52.210;5.160;2023-12-14T05:34:18;8.45;;;3.65;;
66523;SDS011;53350;52.210;5.160;2023-12-14T05:36:45;8.30;;;4.32;;
66523;SDS011;53350;52.210;5.160;2023-12-14T05:39:11;7.05;;;3.88;;
66523;SDS011;53350;52.210;5.160;2023-12-14T05:41:39;8.65;;;3.50;;
66523;SDS011;53350;52.210;5.160;2023-12-14T05:44:06;10.07;;;3.80;;
66523;SDS011;53350;52.210;5.160;2023-12-14T05:46:32;7.53;;;4.05;;
66523;SDS011;53350;52.210;5.160;2023-12-14T05:49:00;9.85;;;4.15;;
66523;SDS011;53350;52.210;5.160;2023-12-14T05:51:27;10.85;;;4.35;;
66523;SDS011;53350;52.210;5.160;2023-12-14T05:53:54;9.03;;;4.50;;
66523;SDS011;53350;52.210;5.160;2023-12-14T05:56:20;8.85;;;4.35;;
66523;SDS011;53350;52.210;5.160;2023-12-14T05:58:47;7.97;;;3.88;;
66523;SDS011;53350;52.210;5.160;2023-12-14T06:01:14;11.50;;;4.65;;
66523;SDS011;53350;52.210;5.160;2023-12-14T06:03:42;12.13;;;5.55;;
66523;SDS011;53350;52.210;5.160;2023-12-14T06:06:10;11.48;;;5.28;;
66523;SDS011;53350;52.210;5.160;2023-12-14T06:08:38;11.23;;;5.95;;
66523;SDS011;53350;52.210;5.160;2023-12-14T06:11:05;9.20;;;5.15;;
66523;SDS011;53350;52.210;5.160;2023-12-14T06:13:31;13.30;;;5.35;;
66523;SDS011;53350;52.210;5.160;2023-12-14T06:15:58;8.15;;;4.72;;
66523;SDS011;53350;52.210;5.160;2023-12-14T06:18:25;9.80;;;5.35;;
66523;SDS011;53350;52.210;5.160;2023-12-14T06:20:51;12.40;;;5.10;;
66523;SDS011;53350;52.210;5.160;2023-12-14T06:23:19;11.50;;;5.65;;
66523;SDS011;53350;52.210;5.160;2023-12-14T06:28:13;10.57;;;5.40;;
66523;SDS011;53350;52.210;5.160;2023-12-14T06:30:39;9.93;;;5.13;;
66523;SDS011;53350;52.210;5.160;2023-12-14T06:33:05;11.25;;;6.00;;
66523;SDS011;53350;52.210;5.160;2023-12-14T06:35:32;10.60;;;4.72;;
66523;SDS011;53350;52.210;5.160;2023-12-14T06:37:58;10.48;;;6.03;;
66523;SDS011;53350;52.210;5.160;2023-12-14T06:40:26;8.55;;;4.65;;
66523;SDS011;53350;52.210;5.160;2023-12-14T06:42:52;10.25;;;6.07;;
66523;SDS011;53350;52.210;5.160;2023-12-14T06:45:19;9.13;;;5.35;;
66523;SDS011;53350;52.210;5.160;2023-12-14T06:47:45;8.07;;;4.25;;
66523;SDS011;53350;52.210;5.160;2023-12-14T06:50:12;11.93;;;4.57;;
66523;SDS011;53350;52.210;5.160;2023-12-14T06:52:39;7.82;;;4.63;;
66523;SDS011;53350;52.210;5.160;2023-12-14T06:55:05;9.60;;;5.07;;
66523;SDS011;53350;52.210;5.160;2023-12-14T06:57:33;8.93;;;4.30;;
66523;SDS011;53350;52.210;5.160;2023-12-14T07:00:00;7.57;;;4.43;;
66523;SDS011;53350;52.210;5.160;2023-12-14T07:02:26;4.95;;;2.45;;
66523;SDS011;53350;52.210;5.160;2023-12-14T07:04:53;9.23;;;4.20;;
66523;SDS011;53350;52.210;5.160;2023-12-14T07:07:19;9.57;;;4.40;;
66523;SDS011;53350;52.210;5.160;2023-12-14T07:09:46;10.25;;;4.38;;
66523;SDS011;53350;52.210;5.160;2023-12-14T07:12:12;6.60;;;3.30;;
66523;SDS011;53350;52.210;5.160;2023-12-14T07:14:40;9.40;;;4.65;;
66523;SDS011;53350;52.210;5.160;2023-12-14T07:17:06;10.45;;;4.38;;
66523;SDS011;53350;52.210;5.160;2023-12-14T07:19:33;7.55;;;4.28;;
66523;SDS011;53350;52.210;5.160;2023-12-14T07:22:00;6.03;;;3.38;;
66523;SDS011;53350;52.210;5.160;2023-12-14T07:24:27;7.00;;;3.85;;
66523;SDS011;53350;52.210;5.160;2023-12-14T07:26:53;7.38;;;3.70;;
66523;SDS011;53350;52.210;5.160;2023-12-14T07:29:20;7.43;;;3.65;;
66523;SDS011;53350;52.210;5.160;2023-12-14T07:31:47;8.35;;;4.07;;
66523;SDS011;53350;52.210;5.160;2023-12-14T07:34:14;7.28;;;3.42;;
66523;SDS011;53350;52.210;5.160;2023-12-14T07:36:40;6.15;;;3.47;;
66523;SDS011;53350;52.210;5.160;2023-12-14T07:39:07;8.45;;;4.20;;
66523;SDS011;53350;52.210;5.160;2023-12-14T07:41:34;8.95;;;4.28;;
66523;SDS011;53350;52.210;5.160;2023-12-14T07:44:00;9.27;;;4.00;;
66523;SDS011;53350;52.210;5.160;2023-12-14T07:46:27;8.15;;;4.22;;
66523;SDS011;53350;52.210;5.160;2023-12-14T07:48:55;8.05;;;4.32;;
66523;SDS011;53350;52.210;5.160;2023-12-14T07:51:21;7.50;;;4.13;;
66523;SDS011;53350;52.210;5.160;2023-12-14T07:53:48;10.43;;;4.50;;
66523;SDS011;53350;52.210;5.160;2023-12-14T07:56:14;8.32;;;4.57;;
66523;SDS011;53350;52.210;5.160;2023-12-14T07:58:41;9.27;;;4.32;;
66523;SDS011;53350;52.210;5.160;2023-12-14T08:01:07;8.35;;;4.50;;
66523;SDS011;53350;52.210;5.160;2023-12-14T08:03:34;8.57;;;4.50;;
66523;SDS011;53350;52.210;5.160;2023-12-14T08:06:02;11.05;;;4.18;;
66523;SDS011;53350;52.210;5.160;2023-12-14T08:08:29;8.10;;;4.50;;
66523;SDS011;53350;52.210;5.160;2023-12-14T08:10:55;9.15;;;4.90;;
66523;SDS011;53350;52.210;5.160;2023-12-14T08:13:22;8.00;;;4.22;;
66523;SDS011;53350;52.210;5.160;2023-12-14T08:15:48;8.35;;;4.55;;
66523;SDS011;53350;52.210;5.160;2023-12-14T08:18:15;8.80;;;4.07;;
66523;SDS011;53350;52.210;5.160;2023-12-14T08:20:41;9.43;;;4.43;;
66523;SDS011;53350;52.210;5.160;2023-12-14T08:23:10;10.07;;;4.45;;
66523;SDS011;53350;52.210;5.160;2023-12-14T08:25:36;12.07;;;4.47;;
66523;SDS011;53350;52.210;5.160;2023-12-14T08:28:03;7.95;;;4.22;;
66523;SDS011;53350;52.210;5.160;2023-12-14T08:30:29;9.93;;;3.75;;
66523;SDS011;53350;52.210;5.160;2023-12-14T08:32:56;8.52;;;4.03;;
66523;SDS011;53350;52.210;5.160;2023-12-14T08:35:22;8.35;;;3.75;;
66523;SDS011;53350;52.210;5.160;2023-12-14T08:37:49;9.80;;;4.40;;
66523;SDS011;53350;52.210;5.160;2023-12-14T08:40:17;11.55;;;5.20;;
66523;SDS011;53350;52.210;5.160;2023-12-14T08:42:43;9.00;;;4.50;;
66523;SDS011;53350;52.210;5.160;2023-12-14T08:45:10;9.85;;;4.65;;
66523;SDS011;53350;52.210;5.160;2023-12-14T08:47:37;8.48;;;4.20;;
66523;SDS011;53350;52.210;5.160;2023-12-14T08:50:04;8.65;;;3.85;;
66523;SDS011;53350;52.210;5.160;2023-12-14T08:52:32;6.45;;;3.25;;
66523;SDS011;53350;52.210;5.160;2023-12-14T08:54:59;7.28;;;3.80;;
66523;SDS011;53350;52.210;5.160;2023-12-14T08:57:28;6.10;;;3.22;;
66523;SDS011;53350;52.210;5.160;2023-12-14T08:59:54;10.75;;;4.25;;
66523;SDS011;53350;52.210;5.160;2023-12-14T09:02:21;7.00;;;3.88;;
66523;SDS011;53350;52.210;5.160;2023-12-14T09:04:47;8.18;;;3.17;;
66523;SDS011;53350;52.210;5.160;2023-12-14T09:07:13;7.13;;;3.15;;
66523;SDS011;53350;52.210;5.160;2023-12-14T09:09:40;7.15;;;3.03;;
66523;SDS011;53350;52.210;5.160;2023-12-14T09:12:06;6.57;;;3.22;;
66523;SDS011;53350;52.210;5.160;2023-12-14T09:14:34;7.32;;;3.33;;
66523;SDS011;53350;52.210;5.160;2023-12-14T09:17:01;5.55;;;2.95;;
66523;SDS011;53350;52.210;5.160;2023-12-14T09:19:28;5.97;;;2.88;;
66523;SDS011;53350;52.210;5.160;2023-12-14T09:21:55;8.82;;;3.40;;
66523;SDS011;53350;52.210;5.160;2023-12-14T09:24:22;6.72;;;2.92;;
66523;SDS011;53350;52.210;5.160;2023-12-14T09:26:49;6.90;;;3.50;;
66523;SDS011;53350;52.210;5.160;2023-12-14T09:29:15;7.30;;;3.10;;
66523;SDS011;53350;52.210;5.160;2023-12-14T09:31:44;10.95;;;3.28;;
66523;SDS011;53350;52.210;5.160;2023-12-14T09:34:11;6.70;;;2.97;;
66523;SDS011;53350;52.210;5.160;2023-12-14T09:36:39;10.50;;;3.33;;
66523;SDS011;53350;52.210;5.160;2023-12-14T09:39:06;8.10;;;3.47;;
66523;SDS011;53350;52.210;5.160;2023-12-14T09:41:35;5.53;;;3.20;;
66523;SDS011;53350;52.210;5.160;2023-12-14T09:44:02;8.98;;;3.08;;
66523;SDS011;53350;52.210;5.160;2023-12-14T09:46:30;7.65;;;3.20;;
66523;SDS011;53350;52.210;5.160;2023-12-14T09:48:58;5.65;;;2.83;;
66523;SDS011;53350;52.210;5.160;2023-12-14T09:51:26;8.27;;;2.80;;
66523;SDS011;53350;52.210;5.160;2023-12-14T09:53:52;8.40;;;2.88;;
66523;SDS011;53350;52.210;5.160;2023-12-14T09:56:23;7.10;;;3.00;;
66523;SDS011;53350;52.210;5.160;2023-12-14T09:58:49;8.50;;;2.90;;
66523;SDS011;53350;52.210;5.160;2023-12-14T10:01:22;8.95;;;3.40;;
66523;SDS011;53350;52.210;5.160;2023-12-14T10:03:49;6.25;;;2.72;;
66523;SDS011;53350;52.210;5.160;2023-12-14T10:06:17;5.18;;;2.30;;
66523;SDS011;53350;52.210;5.160;2023-12-14T10:08:50;6.00;;;2.83;;
66523;SDS011;53350;52.210;5.160;2023-12-14T10:11:20;5.63;;;2.80;;
66523;SDS011;53350;52.210;5.160;2023-12-14T10:13:47;6.28;;;2.90;;
66523;SDS011;53350;52.210;5.160;2023-12-14T10:16:21;7.03;;;3.33;;
66523;SDS011;53350;52.210;5.160;2023-12-14T10:18:52;5.60;;;2.83;;
66523;SDS011;53350;52.210;5.160;2023-12-14T10:21:20;6.28;;;3.28;;
66523;SDS011;53350;52.210;5.160;2023-12-14T10:23:47;7.35;;;3.30;;
66523;SDS011;53350;52.210;5.160;2023-12-14T10:26:14;7.93;;;2.70;;
66523;SDS011;53350;52.210;5.160;2023-12-14T10:28:41;4.95;;;2.70;;
66523;SDS011;53350;52.210;5.160;2023-12-14T10:31:07;5.75;;;2.80;;
66523;SDS011;53350;52.210;5.160;2023-12-14T10:33:35;4.93;;;2.42;;
66523;SDS011;53350;52.210;5.160;2023-12-14T10:36:03;4.60;;;2.53;;
66523;SDS011;53350;52.210;5.160;2023-12-14T10:38:32;8.27;;;3.60;;
66523;SDS011;53350;52.210;5.160;2023-12-14T10:41:00;7.43;;;3.00;;
66523;SDS011;53350;52.210;5.160;2023-12-14T10:43:27;7.88;;;3.30;;
66523;SDS011;53350;52.210;5.160;2023-12-14T10:45:54;7.88;;;3.35;;
66523;SDS011;53350;52.210;5.160;2023-12-14T10:48:22;6.90;;;3.15;;
66523;SDS011;53350;52.210;5.160;2023-12-14T10:50:48;9.55;;;2.63;;
66523;SDS011;53350;52.210;5.160;2023-12-14T10:53:17;6.88;;;2.70;;
66523;SDS011;53350;52.210;5.160;2023-12-14T10:55:45;5.60;;;2.75;;
66523;SDS011;53350;52.210;5.160;2023-12-14T10:58:15;6.10;;;3.22;;
66523;SDS011;53350;52.210;5.160;2023-12-14T11:00:42;8.75;;;3.25;;
66523;SDS011;53350;52.210;5.160;2023-12-14T11:03:12;7.70;;;3.30;;
66523;SDS011;53350;52.210;5.160;2023-12-14T11:05:39;7.80;;;3.00;;
66523;SDS011;53350;52.210;5.160;2023-12-14T11:08:06;8.73;;;3.15;;
66523;SDS011;53350;52.210;5.160;2023-12-14T11:10:38;7.50;;;3.05;;
66523;SDS011;53350;52.210;5.160;2023-12-14T11:13:07;9.07;;;3.17;;
66523;SDS011;53350;52.210;5.160;2023-12-14T11:15:36;7.30;;;2.88;;
66523;SDS011;53350;52.210;5.160;2023-12-14T11:18:22;8.88;;;3.58;;
66523;SDS011;53350;52.210;5.160;2023-12-14T11:20:50;8.10;;;3.38;;
66523;SDS011;53350;52.210;5.160;2023-12-14T11:23:17;6.82;;;3.28;;
66523;SDS011;53350;52.210;5.160;2023-12-14T11:25:57;9.02;;;3.10;;
66523;SDS011;53350;52.210;5.160;2023-12-14T11:28:29;9.05;;;3.47;;
66523;SDS011;53350;52.210;5.160;2023-12-14T11:33:23;8.95;;;3.55;;
66523;SDS011;53350;52.210;5.160;2023-12-14T11:35:50;9.65;;;3.72;;
66523;SDS011;53350;52.210;5.160;2023-12-14T11:38:16;9.68;;;3.63;;
66523;SDS011;53350;52.210;5.160;2023-12-14T11:40:43;7.22;;;3.40;;
66523;SDS011;53350;52.210;5.160;2023-12-14T11:43:09;7.53;;;2.92;;
66523;SDS011;53350;52.210;5.160;2023-12-14T11:45:38;6.30;;;3.03;;
66523;SDS011;53350;52.210;5.160;2023-12-14T11:48:06;7.00;;;3.40;;
66523;SDS011;53350;52.210;5.160;2023-12-14T11:50:35;7.93;;;3.33;;
66523;SDS011;53350;52.210;5.160;2023-12-14T11:53:02;7.72;;;3.38;;
66523;SDS011;53350;52.210;5.160;2023-12-14T11:55:29;7.10;;;3.00;;
66523;SDS011;53350;52.210;5.160;2023-12-14T11:57:56;6.78;;;3.13;;
66523;SDS011;53350;52.210;5.160;2023-12-14T12:00:24;7.05;;;3.00;;
66523;SDS011;53350;52.210;5.160;2023-12-14T12:02:53;7.25;;;3.25;;
66523;SDS011;53350;52.210;5.160;2023-12-14T12:05:36;6.20;;;3.00;;
66523;SDS011;53350;52.210;5.160;2023-12-14T12:08:04;6.68;;;2.65;;
66523;SDS011;53350;52.210;5.160;2023-12-14T12:10:30;7.32;;;2.67;;
66523;SDS011;53350;52.210;5.160;2023-12-14T12:13:01;7.88;;;2.90;;
66523;SDS011;53350;52.210;5.160;2023-12-14T12:15:29;7.13;;;3.05;;
66523;SDS011;53350;52.210;5.160;2023-12-14T12:17:58;6.90;;;3.40;;
66523;SDS011;53350;52.210;5.160;2023-12-14T12:20:25;7.90;;;3.58;;
66523;SDS011;53350;52.210;5.160;2023-12-14T12:22:52;13.40;;;4.10;;
66523;SDS011;53350;52.210;5.160;2023-12-14T12:25:19;6.85;;;3.67;;
66523;SDS011;53350;52.210;5.160;2023-12-14T12:27:45;8.68;;;4.20;;
66523;SDS011;53350;52.210;5.160;2023-12-14T12:30:12;11.52;;;4.13;;
66523;SDS011;53350;52.210;5.160;2023-12-14T12:32:40;8.27;;;4.18;;
66523;SDS011;53350;52.210;5.160;2023-12-14T12:35:08;8.30;;;3.97;;
66523;SDS011;53350;52.210;5.160;2023-12-14T12:37:34;8.05;;;4.00;;
66523;SDS011;53350;52.210;5.160;2023-12-14T12:40:01;8.50;;;4.57;;
66523;SDS011;53350;52.210;5.160;2023-12-14T12:42:27;9.73;;;4.85;;
66523;SDS011;53350;52.210;5.160;2023-12-14T12:44:54;11.25;;;4.40;;
66523;SDS011;53350;52.210;5.160;2023-12-14T12:47:20;10.38;;;4.95;;
66523;SDS011;53350;52.210;5.160;2023-12-14T12:49:47;8.00;;;4.43;;
66523;SDS011;53350;52.210;5.160;2023-12-14T12:52:15;10.65;;;5.35;;
66523;SDS011;53350;52.210;5.160;2023-12-14T12:54:41;13.02;;;6.20;;
66523;SDS011;53350;52.210;5.160;2023-12-14T12:57:08;11.95;;;5.78;;
66523;SDS011;53350;52.210;5.160;2023-12-14T12:59:34;12.88;;;6.30;;
66523;SDS011;53350;52.210;5.160;2023-12-14T13:02:01;10.15;;;5.97;;
66523;SDS011;53350;52.210;5.160;2023-12-14T13:04:27;10.00;;;5.78;;
66523;SDS011;53350;52.210;5.160;2023-12-14T13:06:55;14.00;;;5.40;;
66523;SDS011;53350;52.210;5.160;2023-12-14T13:09:23;9.60;;;5.80;;
66523;SDS011;53350;52.210;5.160;2023-12-14T13:11:50;10.63;;;5.68;;
66523;SDS011;53350;52.210;5.160;2023-12-14T13:14:16;11.38;;;5.38;;
66523;SDS011;53350;52.210;5.160;2023-12-14T13:16:43;9.98;;;6.00;;
66523;SDS011;53350;52.210;5.160;2023-12-14T13:19:09;9.75;;;5.45;;
66523;SDS011;53350;52.210;5.160;2023-12-14T13:21:36;9.93;;;5.63;;
66523;SDS011;53350;52.210;5.160;2023-12-14T13:24:02;9.43;;;5.45;;
66523;SDS011;53350;52.210;5.160;2023-12-14T13:26:30;11.57;;;6.20;;
66523;SDS011;53350;52.210;5.160;2023-12-14T13:28:57;9.23;;;4.65;;
66523;SDS011;53350;52.210;5.160;2023-12-14T13:31:23;12.40;;;6.53;;
66523;SDS011;53350;52.210;5.160;2023-12-14T13:33:50;11.82;;;5.78;;
66523;SDS011;53350;52.210;5.160;2023-12-14T13:36:17;10.98;;;6.03;;
66523;SDS011;53350;52.210;5.160;2023-12-14T13:38:44;12.00;;;6.05;;
66523;SDS011;53350;52.210;5.160;2023-12-14T13:41:11;11.48;;;5.78;;
66523;SDS011;53350;52.210;5.160;2023-12-14T13:43:39;10.82;;;5.65;;
66523;SDS011;53350;52.210;5.160;2023-12-14T13:46:05;10.68;;;5.70;;
66523;SDS011;53350;52.210;5.160;2023-12-14T13:48:32;11.85;;;5.85;;
66523;SDS011;53350;52.210;5.160;2023-12-14T13:50:58;8.85;;;5.68;;
66523;SDS011;53350;52.210;5.160;2023-12-14T13:53:24;13.07;;;5.20;;
66523;SDS011;53350;52.210;5.160;2023-12-14T13:55:51;10.50;;;5.22;;
66523;SDS011;53350;52.210;5.160;2023-12-14T13:58:17;9.63;;;5.40;;
66523;SDS011;53350;52.210;5.160;2023-12-14T14:00:45;12.18;;;6.38;;
66523;SDS011;53350;52.210;5.160;2023-12-14T14:03:12;14.25;;;9.88;;
66523;SDS011;53350;52.210;5.160;2023-12-14T14:05:39;17.50;;;9.68;;
66523;SDS011;53350;52.210;5.160;2023-12-14T14:08:05;13.80;;;8.32;;
66523;SDS011;53350;52.210;5.160;2023-12-14T14:10:31;14.45;;;8.55;;
66523;SDS011;53350;52.210;5.160;2023-12-14T14:12:58;13.98;;;9.35;;
66523;SDS011;53350;52.210;5.160;2023-12-14T14:15:24;15.35;;;9.82;;
66523;SDS011;53350;52.210;5.160;2023-12-14T14:17:52;12.68;;;7.97;;
66523;SDS011;53350;52.210;5.160;2023-12-14T14:20:19;15.10;;;9.40;;
66523;SDS011;53350;52.210;5.160;2023-12-14T14:22:47;12.45;;;8.15;;
66523;SDS011;53350;52.210;5.160;2023-12-14T14:25:13;15.45;;;9.75;;
66523;SDS011;53350;52.210;5.160;2023-12-14T14:27:40;12.02;;;7.78;;
66523;SDS011;53350;52.210;5.160;2023-12-14T14:30:07;11.63;;;7.40;;
66523;SDS011;53350;52.210;5.160;2023-12-14T14:32:34;12.13;;;7.55;;
66523;SDS011;53350;52.210;5.160;2023-12-14T14:37:31;11.85;;;6.75;;
66523;SDS011;53350;52.210;5.160;2023-12-14T14:39:58;13.07;;;6.57;;
66523;SDS011;53350;52.210;5.160;2023-12-14T14:42:24;13.27;;;7.28;;
66523;SDS011;53350;52.210;5.160;2023-12-14T14:44:51;11.65;;;6.40;;
66523;SDS011;53350;52.210;5.160;2023-12-14T14:47:17;12.48;;;8.32;;
66523;SDS011;53350;52.210;5.160;2023-12-14T14:49:44;12.93;;;7.00;;